sensor_id;sensor_type;location;lat;lon;timestamp;P1;durP1;ratioP1;P2;durP2;ratioP2
28627;SDS011;15815;46.760;19.604;2023-05-10T00:01:17;5.65;;;4.32;;
28627;SDS011;15815;46.760;19.604;2023-05-10T00:03:43;9.70;;;4.97;;
28627;SDS011;15815;46.760;19.604;2023-05-10T00:06:08;8.85;;;5.80;;
28627;SDS011;15815;46.760;19.604;2023-05-10T00:08:34;6.00;;;4.78;;
28627;SDS011;15815;46.760;19.604;2023-05-10T00:10:59;6.22;;;5.05;;
28627;SDS011;15815;46.760;19.604;2023-05-10T00:13:25;10.80;;;4.97;;
28627;SDS011;15815;46.760;19.604;2023-05-10T00:15:50;5.30;;;4.43;;
28627;SDS011;15815;46.760;19.604;2023-05-10T00:18:16;7.00;;;4.55;;
28627;SDS011;15815;46.760;19.604;2023-05-10T00:20:41;5.72;;;4.45;;
28627;SDS011;15815;46.760;19.604;2023-05-10T00:23:07;13.23;;;5.68;;
28627;SDS011;15815;46.760;19.604;2023-05-10T00:25:32;8.50;;;5.13;;
28627;SDS011;15815;46.760;19.604;2023-05-10T00:27:58;7.22;;;5.03;;
28627;SDS011;15815;46.760;19.604;2023-05-10T00:30:24;5.25;;;4.53;;
28627;SDS011;15815;46.760;19.604;2023-05-10T00:32:49;7.82;;;5.40;;
28627;SDS011;15815;46.760;19.604;2023-05-10T00:35:15;5.82;;;4.78;;
28627;SDS011;15815;46.760;19.604;2023-05-10T00:37:44;8.02;;;4.45;;
28627;SDS011;15815;46.760;19.604;2023-05-10T00:40:09;7.45;;;4.78;;
28627;SDS011;15815;46.760;19.604;2023-05-10T00:42:35;6.70;;;4.63;;
28627;SDS011;15815;46.760;19.604;2023-05-10T00:45:01;6.28;;;4.93;;
28627;SDS011;15815;46.760;19.604;2023-05-10T00:47:26;7.70;;;4.95;;
28627;SDS011;15815;46.760;19.604;2023-05-10T00:49:52;7.20;;;4.95;;
28627;SDS011;15815;46.760;19.604;2023-05-10T00:52:18;13.05;;;5.57;;
28627;SDS011;15815;46.760;19.604;2023-05-10T00:54:47;6.47;;;5.03;;
28627;SDS011;15815;46.760;19.604;2023-05-10T00:57:13;5.72;;;4.65;;
28627;SDS011;15815;46.760;19.604;2023-05-10T00:59:38;11.35;;;5.35;;
28627;SDS011;15815;46.760;19.604;2023-05-10T01:02:04;6.95;;;5.15;;
28627;SDS011;15815;46.760;19.604;2023-05-10T01:04:32;7.25;;;5.28;;
28627;SDS011;15815;46.760;19.604;2023-05-10T01:06:58;8.63;;;5.80;;
28627;SDS011;15815;46.760;19.604;2023-05-10T01:09:24;9.15;;;5.68;;
28627;SDS011;15815;46.760;19.604;2023-05-10T01:11:53;10.55;;;5.75;;
28627;SDS011;15815;46.760;19.604;2023-05-10T01:14:19;7.40;;;5.75;;
28627;SDS011;15815;46.760;19.604;2023-05-10T01:16:47;10.38;;;5.18;;
28627;SDS011;15815;46.760;19.604;2023-05-10T01:33:38;9.98;;;6.55;;
28627;SDS011;15815;46.760;19.604;2023-05-10T01:39:15;9.88;;;6.25;;
28627;SDS011;15815;46.760;19.604;2023-05-10T01:41:48;8.00;;;6.47;;
28627;SDS011;15815;46.760;19.604;2023-05-10T01:46:49;8.43;;;6.33;;
28627;SDS011;15815;46.760;19.604;2023-05-10T01:49:25;11.05;;;6.82;;
28627;SDS011;15815;46.760;19.604;2023-05-10T01:51:54;9.13;;;6.47;;
28627;SDS011;15815;46.760;19.604;2023-05-10T01:54:25;10.68;;;6.25;;
28627;SDS011;15815;46.760;19.604;2023-05-10T01:57:01;12.95;;;6.53;;
28627;SDS011;15815;46.760;19.604;2023-05-10T01:59:30;15.55;;;7.10;;
28627;SDS011;15815;46.760;19.604;2023-05-10T02:02:00;17.77;;;8.63;;
28627;SDS011;15815;46.760;19.604;2023-05-10T02:04:27;17.20;;;8.38;;
28627;SDS011;15815;46.760;19.604;2023-05-10T02:06:54;12.68;;;7.68;;
28627;SDS011;15815;46.760;19.604;2023-05-10T02:09:21;11.00;;;6.55;;
28627;SDS011;15815;46.760;19.604;2023-05-10T02:11:50;40.22;;;7.32;;
28627;SDS011;15815;46.760;19.604;2023-05-10T02:14:20;8.82;;;6.75;;
28627;SDS011;15815;46.760;19.604;2023-05-10T02:16:47;15.60;;;6.65;;
28627;SDS011;15815;46.760;19.604;2023-05-10T02:19:15;9.80;;;6.60;;
28627;SDS011;15815;46.760;19.604;2023-05-10T02:21:43;13.40;;;7.57;;
28627;SDS011;15815;46.760;19.604;2023-05-10T02:24:10;7.90;;;6.75;;
28627;SDS011;15815;46.760;19.604;2023-05-10T02:26:36;8.23;;;6.35;;
28627;SDS011;15815;46.760;19.604;2023-05-10T02:29:03;8.23;;;7.15;;
28627;SDS011;15815;46.760;19.604;2023-05-10T02:31:34;12.02;;;6.88;;
28627;SDS011;15815;46.760;19.604;2023-05-10T02:34:01;7.22;;;6.53;;
28627;SDS011;15815;46.760;19.604;2023-05-10T02:36:27;10.65;;;7.13;;
28627;SDS011;15815;46.760;19.604;2023-05-10T02:38:54;11.55;;;7.40;;
28627;SDS011;15815;46.760;19.604;2023-05-10T02:41:20;7.80;;;6.68;;
28627;SDS011;15815;46.760;19.604;2023-05-10T02:43:49;9.43;;;7.45;;
28627;SDS011;15815;46.760;19.604;2023-05-10T02:46:16;8.88;;;7.20;;
28627;SDS011;15815;46.760;19.604;2023-05-10T02:48:42;11.15;;;6.90;;
28627;SDS011;15815;46.760;19.604;2023-05-10T02:51:08;9.90;;;6.97;;
28627;SDS011;15815;46.760;19.604;2023-05-10T02:53:36;9.02;;;6.85;;
28627;SDS011;15815;46.760;19.604;2023-05-10T02:56:09;7.18;;;6.47;;
28627;SDS011;15815;46.760;19.604;2023-05-10T02:58:39;9.48;;;7.68;;
28627;SDS011;15815;46.760;19.604;2023-05-10T03:01:04;10.25;;;7.43;;
28627;SDS011;15815;46.760;19.604;2023-05-10T03:03:30;11.20;;;7.50;;
28627;SDS011;15815;46.760;19.604;2023-05-10T03:05:56;8.73;;;6.47;;
28627;SDS011;15815;46.760;19.604;2023-05-10T03:08:22;8.65;;;7.50;;
28627;SDS011;15815;46.760;19.604;2023-05-10T03:10:50;12.65;;;7.70;;
28627;SDS011;15815;46.760;19.604;2023-05-10T03:19:38;12.10;;;8.15;;
28627;SDS011;15815;46.760;19.604;2023-05-10T03:22:11;12.15;;;8.55;;
28627;SDS011;15815;46.760;19.604;2023-05-10T03:24:43;10.88;;;8.57;;
28627;SDS011;15815;46.760;19.604;2023-05-10T03:27:12;12.27;;;8.20;;
28627;SDS011;15815;46.760;19.604;2023-05-10T03:29:39;11.00;;;7.65;;
28627;SDS011;15815;46.760;19.604;2023-05-10T03:32:06;10.75;;;9.18;;
28627;SDS011;15815;46.760;19.604;2023-05-10T03:34:32;11.90;;;8.73;;
28627;SDS011;15815;46.760;19.604;2023-05-10T03:36:57;12.18;;;9.00;;
28627;SDS011;15815;46.760;19.604;2023-05-10T03:39:23;13.43;;;8.98;;
28627;SDS011;15815;46.760;19.604;2023-05-10T03:41:48;15.43;;;8.77;;
28627;SDS011;15815;46.760;19.604;2023-05-10T03:44:14;15.75;;;8.65;;
28627;SDS011;15815;46.760;19.604;2023-05-10T03:46:39;19.90;;;10.38;;
28627;SDS011;15815;46.760;19.604;2023-05-10T03:49:05;14.50;;;9.02;;
28627;SDS011;15815;46.760;19.604;2023-05-10T03:51:30;13.38;;;8.55;;
28627;SDS011;15815;46.760;19.604;2023-05-10T03:53:56;10.77;;;8.55;;
28627;SDS011;15815;46.760;19.604;2023-05-10T03:56:21;10.57;;;8.80;;
28627;SDS011;15815;46.760;19.604;2023-05-10T03:58:47;18.88;;;8.85;;
28627;SDS011;15815;46.760;19.604;2023-05-10T04:01:13;13.48;;;9.05;;
28627;SDS011;15815;46.760;19.604;2023-05-10T04:03:41;13.65;;;9.10;;
28627;SDS011;15815;46.760;19.604;2023-05-10T04:06:06;11.90;;;8.75;;
28627;SDS011;15815;46.760;19.604;2023-05-10T04:08:32;11.98;;;8.77;;
28627;SDS011;15815;46.760;19.604;2023-05-10T04:11:10;10.07;;;8.30;;
28627;SDS011;15815;46.760;19.604;2023-05-10T04:13:36;15.13;;;8.63;;
28627;SDS011;15815;46.760;19.604;2023-05-10T04:16:02;14.52;;;8.65;;
28627;SDS011;15815;46.760;19.604;2023-05-10T04:18:28;12.18;;;9.70;;
28627;SDS011;15815;46.760;19.604;2023-05-10T04:20:53;11.38;;;8.75;;
28627;SDS011;15815;46.760;19.604;2023-05-10T04:23:19;16.08;;;9.77;;
28627;SDS011;15815;46.760;19.604;2023-05-10T04:25:45;15.70;;;8.57;;
28627;SDS011;15815;46.760;19.604;2023-05-10T04:28:10;12.25;;;8.20;;
28627;SDS011;15815;46.760;19.604;2023-05-10T04:30:36;10.38;;;8.23;;
28627;SDS011;15815;46.760;19.604;2023-05-10T04:33:01;10.18;;;8.50;;
28627;SDS011;15815;46.760;19.604;2023-05-10T04:35:28;12.02;;;7.45;;
28627;SDS011;15815;46.760;19.604;2023-05-10T04:37:53;11.23;;;8.25;;
28627;SDS011;15815;46.760;19.604;2023-05-10T04:40:19;9.80;;;8.10;;
28627;SDS011;15815;46.760;19.604;2023-05-10T04:42:45;9.48;;;7.35;;
28627;SDS011;15815;46.760;19.604;2023-05-10T04:45:11;8.80;;;7.43;;
28627;SDS011;15815;46.760;19.604;2023-05-10T04:47:36;11.38;;;6.88;;
28627;SDS011;15815;46.760;19.604;2023-05-10T04:50:03;9.45;;;6.47;;
28627;SDS011;15815;46.760;19.604;2023-05-10T04:52:29;10.00;;;6.95;;
28627;SDS011;15815;46.760;19.604;2023-05-10T04:54:54;8.05;;;7.03;;
28627;SDS011;15815;46.760;19.604;2023-05-10T04:57:20;8.05;;;6.57;;
28627;SDS011;15815;46.760;19.604;2023-05-10T04:59:45;10.07;;;6.80;;
28627;SDS011;15815;46.760;19.604;2023-05-10T05:02:14;8.40;;;6.30;;
28627;SDS011;15815;46.760;19.604;2023-05-10T05:04:39;7.40;;;6.65;;
28627;SDS011;15815;46.760;19.604;2023-05-10T05:07:05;6.72;;;6.07;;
28627;SDS011;15815;46.760;19.604;2023-05-10T05:09:31;11.38;;;6.85;;
28627;SDS011;15815;46.760;19.604;2023-05-10T05:11:58;9.18;;;5.88;;
28627;SDS011;15815;46.760;19.604;2023-05-10T05:14:24;8.18;;;5.65;;
28627;SDS011;15815;46.760;19.604;2023-05-10T05:16:49;6.05;;;5.20;;
28627;SDS011;15815;46.760;19.604;2023-05-10T05:19:16;6.60;;;5.47;;
28627;SDS011;15815;46.760;19.604;2023-05-10T05:21:41;6.55;;;4.90;;
28627;SDS011;15815;46.760;19.604;2023-05-10T05:24:28;6.18;;;5.28;;
28627;SDS011;15815;46.760;19.604;2023-05-10T05:26:53;8.55;;;5.30;;
28627;SDS011;15815;46.760;19.604;2023-05-10T05:29:19;7.90;;;4.90;;
28627;SDS011;15815;46.760;19.604;2023-05-10T05:31:47;9.48;;;5.07;;
28627;SDS011;15815;46.760;19.604;2023-05-10T05:34:13;8.63;;;5.20;;
28627;SDS011;15815;46.760;19.604;2023-05-10T05:36:38;4.60;;;4.13;;
28627;SDS011;15815;46.760;19.604;2023-05-10T05:39:04;6.53;;;4.90;;
28627;SDS011;15815;46.760;19.604;2023-05-10T05:41:29;10.25;;;4.40;;
28627;SDS011;15815;46.760;19.604;2023-05-10T05:43:55;12.02;;;4.57;;
28627;SDS011;15815;46.760;19.604;2023-05-10T05:46:23;6.68;;;4.30;;
28627;SDS011;15815;46.760;19.604;2023-05-10T05:48:49;7.45;;;3.85;;
28627;SDS011;15815;46.760;19.604;2023-05-10T05:51:15;4.53;;;4.00;;
28627;SDS011;15815;46.760;19.604;2023-05-10T05:53:41;6.13;;;4.13;;
28627;SDS011;15815;46.760;19.604;2023-05-10T05:56:06;5.82;;;3.80;;
28627;SDS011;15815;46.760;19.604;2023-05-10T05:58:32;5.63;;;3.53;;
28627;SDS011;15815;46.760;19.604;2023-05-10T06:00:57;5.75;;;3.53;;
28627;SDS011;15815;46.760;19.604;2023-05-10T06:03:23;3.25;;;2.80;;
28627;SDS011;15815;46.760;19.604;2023-05-10T06:05:48;4.63;;;3.47;;
28627;SDS011;15815;46.760;19.604;2023-05-10T06:08:14;5.45;;;3.42;;
28627;SDS011;15815;46.760;19.604;2023-05-10T06:10:39;5.68;;;3.10;;
28627;SDS011;15815;46.760;19.604;2023-05-10T06:13:05;3.22;;;2.63;;
28627;SDS011;15815;46.760;19.604;2023-05-10T06:15:31;4.88;;;2.78;;
28627;SDS011;15815;46.760;19.604;2023-05-10T06:17:56;6.07;;;2.70;;
28627;SDS011;15815;46.760;19.604;2023-05-10T06:20:22;11.68;;;3.35;;
28627;SDS011;15815;46.760;19.604;2023-05-10T06:22:47;5.60;;;2.88;;
28627;SDS011;15815;46.760;19.604;2023-05-10T06:25:13;5.25;;;2.88;;
28627;SDS011;15815;46.760;19.604;2023-05-10T06:27:38;8.15;;;2.83;;
28627;SDS011;15815;46.760;19.604;2023-05-10T06:30:04;4.57;;;3.00;;
28627;SDS011;15815;46.760;19.604;2023-05-10T06:32:30;3.25;;;2.92;;
28627;SDS011;15815;46.760;19.604;2023-05-10T06:34:55;8.98;;;2.72;;
28627;SDS011;15815;46.760;19.604;2023-05-10T06:37:21;6.68;;;2.95;;
28627;SDS011;15815;46.760;19.604;2023-05-10T06:39:47;9.15;;;3.10;;
28627;SDS011;15815;46.760;19.604;2023-05-10T06:42:12;3.05;;;2.33;;
28627;SDS011;15815;46.760;19.604;2023-05-10T06:44:38;3.63;;;2.88;;
28627;SDS011;15815;46.760;19.604;2023-05-10T06:47:03;4.38;;;2.72;;
28627;SDS011;15815;46.760;19.604;2023-05-10T06:49:29;3.13;;;2.80;;
28627;SDS011;15815;46.760;19.604;2023-05-10T06:51:55;2.88;;;2.47;;
28627;SDS011;15815;46.760;19.604;2023-05-10T06:54:21;4.82;;;2.47;;
28627;SDS011;15815;46.760;19.604;2023-05-10T06:56:47;6.53;;;2.60;;
28627;SDS011;15815;46.760;19.604;2023-05-10T06:59:13;6.45;;;2.55;;
28627;SDS011;15815;46.760;19.604;2023-05-10T07:01:39;4.57;;;2.50;;
28627;SDS011;15815;46.760;19.604;2023-05-10T07:04:04;5.00;;;2.80;;
28627;SDS011;15815;46.760;19.604;2023-05-10T07:06:30;6.53;;;2.63;;
28627;SDS011;15815;46.760;19.604;2023-05-10T07:08:55;5.32;;;2.80;;
28627;SDS011;15815;46.760;19.604;2023-05-10T07:11:21;4.95;;;2.60;;
28627;SDS011;15815;46.760;19.604;2023-05-10T07:13:46;9.32;;;2.80;;
28627;SDS011;15815;46.760;19.604;2023-05-10T07:16:12;4.10;;;2.50;;
28627;SDS011;15815;46.760;19.604;2023-05-10T07:18:38;4.32;;;2.55;;
28627;SDS011;15815;46.760;19.604;2023-05-10T07:21:03;5.82;;;2.90;;
28627;SDS011;15815;46.760;19.604;2023-05-10T07:23:29;4.63;;;2.47;;
28627;SDS011;15815;46.760;19.604;2023-05-10T07:25:54;4.88;;;2.92;;
28627;SDS011;15815;46.760;19.604;2023-05-10T07:28:20;3.88;;;2.72;;
28627;SDS011;15815;46.760;19.604;2023-05-10T07:30:46;7.03;;;3.10;;
28627;SDS011;15815;46.760;19.604;2023-05-10T07:33:12;3.20;;;2.83;;
28627;SDS011;15815;46.760;19.604;2023-05-10T07:35:39;3.53;;;2.65;;
28627;SDS011;15815;46.760;19.604;2023-05-10T07:38:04;2.97;;;2.67;;
28627;SDS011;15815;46.760;19.604;2023-05-10T07:40:30;3.10;;;2.88;;
28627;SDS011;15815;46.760;19.604;2023-05-10T07:42:56;5.63;;;3.20;;
28627;SDS011;15815;46.760;19.604;2023-05-10T07:45:22;7.55;;;3.05;;
28627;SDS011;15815;46.760;19.604;2023-05-10T07:47:48;5.40;;;3.28;;
28627;SDS011;15815;46.760;19.604;2023-05-10T07:50:13;6.95;;;3.17;;
28627;SDS011;15815;46.760;19.604;2023-05-10T07:52:39;3.55;;;3.10;;
28627;SDS011;15815;46.760;19.604;2023-05-10T07:55:04;8.15;;;3.53;;
28627;SDS011;15815;46.760;19.604;2023-05-10T07:57:30;3.33;;;2.95;;
28627;SDS011;15815;46.760;19.604;2023-05-10T07:59:56;7.55;;;3.85;;
28627;SDS011;15815;46.760;19.604;2023-05-10T08:02:22;3.33;;;3.03;;
28627;SDS011;15815;46.760;19.604;2023-05-10T08:04:47;3.92;;;3.53;;
28627;SDS011;15815;46.760;19.604;2023-05-10T08:07:13;3.60;;;3.30;;
28627;SDS011;15815;46.760;19.604;2023-05-10T08:09:39;5.22;;;2.53;;
28627;SDS011;15815;46.760;19.604;2023-05-10T08:12:05;6.50;;;3.28;;
28627;SDS011;15815;46.760;19.604;2023-05-10T08:14:31;5.80;;;2.33;;
28627;SDS011;15815;46.760;19.604;2023-05-10T08:16:56;7.53;;;2.50;;
28627;SDS011;15815;46.760;19.604;2023-05-10T08:19:22;5.85;;;2.25;;
28627;SDS011;15815;46.760;19.604;2023-05-10T08:21:47;6.95;;;3.15;;
28627;SDS011;15815;46.760;19.604;2023-05-10T08:24:13;11.55;;;2.60;;
28627;SDS011;15815;46.760;19.604;2023-05-10T08:26:39;6.68;;;2.75;;
28627;SDS011;15815;46.760;19.604;2023-05-10T08:29:04;2.70;;;2.47;;
28627;SDS011;15815;46.760;19.604;2023-05-10T08:31:30;2.65;;;2.35;;
28627;SDS011;15815;46.760;19.604;2023-05-10T08:33:56;3.13;;;2.58;;
28627;SDS011;15815;46.760;19.604;2023-05-10T08:36:21;8.07;;;2.42;;
28627;SDS011;15815;46.760;19.604;2023-05-10T08:38:49;2.85;;;2.55;;
28627;SDS011;15815;46.760;19.604;2023-05-10T08:41:21;3.67;;;2.65;;
28627;SDS011;15815;46.760;19.604;2023-05-10T08:43:49;3.65;;;2.40;;
28627;SDS011;15815;46.760;19.604;2023-05-10T08:46:19;5.03;;;2.75;;
28627;SDS011;15815;46.760;19.604;2023-05-10T08:48:49;4.47;;;2.35;;
28627;SDS011;15815;46.760;19.604;2023-05-10T08:51:20;3.40;;;2.83;;
28627;SDS011;15815;46.760;19.604;2023-05-10T08:53:49;4.18;;;2.38;;
28627;SDS011;15815;46.760;19.604;2023-05-10T08:56:15;2.60;;;2.40;;
28627;SDS011;15815;46.760;19.604;2023-05-10T08:58:41;3.85;;;2.40;;
28627;SDS011;15815;46.760;19.604;2023-05-10T09:01:06;3.13;;;2.13;;
28627;SDS011;15815;46.760;19.604;2023-05-10T09:03:40;3.88;;;2.13;;
28627;SDS011;15815;46.760;19.604;2023-05-10T09:06:06;3.00;;;2.20;;
28627;SDS011;15815;46.760;19.604;2023-05-10T09:08:32;11.13;;;2.17;;
28627;SDS011;15815;46.760;19.604;2023-05-10T09:10:57;5.30;;;2.47;;
28627;SDS011;15815;46.760;19.604;2023-05-10T09:13:25;4.82;;;1.80;;
28627;SDS011;15815;46.760;19.604;2023-05-10T09:15:50;5.97;;;1.48;;
28627;SDS011;15815;46.760;19.604;2023-05-10T09:18:16;4.70;;;2.08;;
28627;SDS011;15815;46.760;19.604;2023-05-10T09:20:42;3.53;;;2.03;;
28627;SDS011;15815;46.760;19.604;2023-05-10T09:23:08;3.92;;;2.47;;
28627;SDS011;15815;46.760;19.604;2023-05-10T09:25:33;2.10;;;1.77;;
28627;SDS011;15815;46.760;19.604;2023-05-10T09:27:59;3.63;;;2.10;;
28627;SDS011;15815;46.760;19.604;2023-05-10T09:30:25;6.97;;;2.30;;
28627;SDS011;15815;46.760;19.604;2023-05-10T09:32:52;10.73;;;2.22;;
28627;SDS011;15815;46.760;19.604;2023-05-10T09:35:19;3.67;;;1.90;;
28627;SDS011;15815;46.760;19.604;2023-05-10T09:37:47;2.50;;;2.30;;
28627;SDS011;15815;46.760;19.604;2023-05-10T09:40:15;3.85;;;2.28;;
28627;SDS011;15815;46.760;19.604;2023-05-10T09:42:43;3.65;;;1.90;;
28627;SDS011;15815;46.760;19.604;2023-05-10T09:45:36;4.65;;;2.30;;
28627;SDS011;15815;46.760;19.604;2023-05-10T09:48:02;5.32;;;2.40;;
28627;SDS011;15815;46.760;19.604;2023-05-10T09:50:28;1.80;;;1.65;;
28627;SDS011;15815;46.760;19.604;2023-05-10T09:52:56;2.00;;;1.85;;
28627;SDS011;15815;46.760;19.604;2023-05-10T09:55:25;7.25;;;1.80;;
28627;SDS011;15815;46.760;19.604;2023-05-10T09:58:00;6.93;;;1.60;;
28627;SDS011;15815;46.760;19.604;2023-05-10T10:00:27;2.30;;;1.83;;
28627;SDS011;15815;46.760;19.604;2023-05-10T10:02:57;22.60;;;1.67;;
28627;SDS011;15815;46.760;19.604;2023-05-10T10:05:33;6.43;;;1.88;;
28627;SDS011;15815;46.760;19.604;2023-05-10T10:08:00;2.75;;;1.90;;
28627;SDS011;15815;46.760;19.604;2023-05-10T10:10:28;2.55;;;1.58;;
28627;SDS011;15815;46.760;19.604;2023-05-10T10:12:54;4.45;;;1.75;;
28627;SDS011;15815;46.760;19.604;2023-05-10T10:15:21;3.40;;;2.13;;
28627;SDS011;15815;46.760;19.604;2023-05-10T10:17:48;5.00;;;1.80;;
28627;SDS011;15815;46.760;19.604;2023-05-10T10:20:14;4.13;;;1.50;;
28627;SDS011;15815;46.760;19.604;2023-05-10T10:22:40;2.85;;;2.05;;
28627;SDS011;15815;46.760;19.604;2023-05-10T10:25:06;2.03;;;1.80;;
28627;SDS011;15815;46.760;19.604;2023-05-10T10:27:43;2.58;;;1.90;;
28627;SDS011;15815;46.760;19.604;2023-05-10T10:35:37;5.03;;;2.20;;
28627;SDS011;15815;46.760;19.604;2023-05-10T10:38:04;2.03;;;1.83;;
28627;SDS011;15815;46.760;19.604;2023-05-10T10:40:32;5.32;;;1.63;;
28627;SDS011;15815;46.760;19.604;2023-05-10T10:43:20;7.65;;;1.67;;
28627;SDS011;15815;46.760;19.604;2023-05-10T10:48:40;2.70;;;1.83;;
28627;SDS011;15815;46.760;19.604;2023-05-10T10:51:28;7.88;;;1.90;;
28627;SDS011;15815;46.760;19.604;2023-05-10T10:53:54;2.28;;;1.60;;
28627;SDS011;15815;46.760;19.604;2023-05-10T10:56:34;4.65;;;1.88;;
28627;SDS011;15815;46.760;19.604;2023-05-10T10:58:59;7.63;;;2.33;;
28627;SDS011;15815;46.760;19.604;2023-05-10T11:01:25;1.92;;;1.30;;
28627;SDS011;15815;46.760;19.604;2023-05-10T11:06:33;4.18;;;1.67;;
28627;SDS011;15815;46.760;19.604;2023-05-10T11:09:06;4.70;;;1.80;;
28627;SDS011;15815;46.760;19.604;2023-05-10T11:11:36;2.17;;;1.67;;
28627;SDS011;15815;46.760;19.604;2023-05-10T11:14:14;1.92;;;1.50;;
28627;SDS011;15815;46.760;19.604;2023-05-10T11:16:45;4.20;;;1.70;;
28627;SDS011;15815;46.760;19.604;2023-05-10T11:19:11;2.53;;;1.63;;
28627;SDS011;15815;46.760;19.604;2023-05-10T11:21:45;2.13;;;1.60;;
28627;SDS011;15815;46.760;19.604;2023-05-10T11:24:16;3.83;;;1.80;;
28627;SDS011;15815;46.760;19.604;2023-05-10T11:26:44;8.88;;;1.92;;
28627;SDS011;15815;46.760;19.604;2023-05-10T11:29:10;3.80;;;1.67;;
28627;SDS011;15815;46.760;19.604;2023-05-10T11:31:44;1.75;;;1.65;;
28627;SDS011;15815;46.760;19.604;2023-05-10T11:34:10;2.58;;;1.50;;
28627;SDS011;15815;46.760;19.604;2023-05-10T11:36:36;5.18;;;1.48;;
28627;SDS011;15815;46.760;19.604;2023-05-10T11:39:02;4.07;;;1.63;;
28627;SDS011;15815;46.760;19.604;2023-05-10T11:41:28;5.07;;;1.95;;
28627;SDS011;15815;46.760;19.604;2023-05-10T11:43:55;3.92;;;1.58;;
28627;SDS011;15815;46.760;19.604;2023-05-10T11:46:24;5.18;;;1.85;;
28627;SDS011;15815;46.760;19.604;2023-05-10T11:48:54;3.13;;;1.67;;
28627;SDS011;15815;46.760;19.604;2023-05-10T11:51:25;6.93;;;1.58;;
28627;SDS011;15815;46.760;19.604;2023-05-10T11:53:52;3.13;;;1.63;;
28627;SDS011;15815;46.760;19.604;2023-05-10T11:56:19;1.67;;;1.38;;
28627;SDS011;15815;46.760;19.604;2023-05-10T11:58:44;3.28;;;1.45;;
28627;SDS011;15815;46.760;19.604;2023-05-10T12:01:10;3.50;;;1.50;;
28627;SDS011;15815;46.760;19.604;2023-05-10T12:03:37;1.40;;;1.30;;
28627;SDS011;15815;46.760;19.604;2023-05-10T12:06:03;3.47;;;1.33;;
28627;SDS011;15815;46.760;19.604;2023-05-10T12:08:29;4.80;;;1.50;;
28627;SDS011;15815;46.760;19.604;2023-05-10T12:11:05;1.98;;;1.48;;
28627;SDS011;15815;46.760;19.604;2023-05-10T12:13:32;11.35;;;1.42;;
28627;SDS011;15815;46.760;19.604;2023-05-10T12:15:58;2.08;;;1.50;;
28627;SDS011;15815;46.760;19.604;2023-05-10T12:18:24;2.10;;;1.60;;
28627;SDS011;15815;46.760;19.604;2023-05-10T12:20:51;1.92;;;1.33;;
28627;SDS011;15815;46.760;19.604;2023-05-10T12:23:17;3.53;;;1.40;;
28627;SDS011;15815;46.760;19.604;2023-05-10T12:25:44;3.38;;;1.27;;
28627;SDS011;15815;46.760;19.604;2023-05-10T12:28:10;2.30;;;1.30;;
28627;SDS011;15815;46.760;19.604;2023-05-10T12:30:35;7.40;;;1.60;;
28627;SDS011;15815;46.760;19.604;2023-05-10T12:33:11;2.15;;;1.98;;
28627;SDS011;15815;46.760;19.604;2023-05-10T12:35:47;3.28;;;1.63;;
28627;SDS011;15815;46.760;19.604;2023-05-10T12:38:27;4.30;;;1.80;;
28627;SDS011;15815;46.760;19.604;2023-05-10T12:41:00;3.75;;;1.80;;
28627;SDS011;15815;46.760;19.604;2023-05-10T12:43:27;1.63;;;1.52;;
28627;SDS011;15815;46.760;19.604;2023-05-10T12:45:52;5.55;;;1.77;;
28627;SDS011;15815;46.760;19.604;2023-05-10T12:48:18;3.70;;;1.50;;
28627;SDS011;15815;46.760;19.604;2023-05-10T12:50:44;3.50;;;1.67;;
28627;SDS011;15815;46.760;19.604;2023-05-10T12:53:13;2.10;;;1.52;;
28627;SDS011;15815;46.760;19.604;2023-05-10T12:55:40;2.65;;;1.60;;
28627;SDS011;15815;46.760;19.604;2023-05-10T12:58:05;3.67;;;1.70;;
28627;SDS011;15815;46.760;19.604;2023-05-10T13:00:31;4.15;;;2.20;;
28627;SDS011;15815;46.760;19.604;2023-05-10T13:02:56;3.50;;;1.55;;
28627;SDS011;15815;46.760;19.604;2023-05-10T13:05:22;2.38;;;1.85;;
28627;SDS011;15815;46.760;19.604;2023-05-10T13:07:47;2.50;;;1.67;;
28627;SDS011;15815;46.760;19.604;2023-05-10T13:10:13;3.75;;;1.60;;
28627;SDS011;15815;46.760;19.604;2023-05-10T13:12:39;15.43;;;2.30;;
28627;SDS011;15815;46.760;19.604;2023-05-10T13:15:04;6.47;;;1.60;;
28627;SDS011;15815;46.760;19.604;2023-05-10T13:17:30;6.47;;;1.90;;
28627;SDS011;15815;46.760;19.604;2023-05-10T13:19:56;1.92;;;1.80;;
28627;SDS011;15815;46.760;19.604;2023-05-10T13:22:22;5.85;;;2.05;;
28627;SDS011;15815;46.760;19.604;2023-05-10T13:24:49;4.25;;;1.50;;
28627;SDS011;15815;46.760;19.604;2023-05-10T13:27:14;9.93;;;2.13;;
28627;SDS011;15815;46.760;19.604;2023-05-10T13:29:40;5.47;;;1.63;;
28627;SDS011;15815;46.760;19.604;2023-05-10T13:32:05;2.47;;;1.38;;
28627;SDS011;15815;46.760;19.604;2023-05-10T13:34:31;5.30;;;1.70;;
28627;SDS011;15815;46.760;19.604;2023-05-10T13:36:57;7.38;;;1.80;;
28627;SDS011;15815;46.760;19.604;2023-05-10T13:39:22;2.38;;;1.88;;
28627;SDS011;15815;46.760;19.604;2023-05-10T13:41:48;2.80;;;1.90;;
28627;SDS011;15815;46.760;19.604;2023-05-10T13:44:13;4.20;;;1.25;;
28627;SDS011;15815;46.760;19.604;2023-05-10T13:46:41;7.18;;;1.65;;
28627;SDS011;15815;46.760;19.604;2023-05-10T13:49:08;5.90;;;1.70;;
28627;SDS011;15815;46.760;19.604;2023-05-10T13:51:37;4.00;;;1.50;;
28627;SDS011;15815;46.760;19.604;2023-05-10T13:54:03;4.28;;;1.40;;
28627;SDS011;15815;46.760;19.604;2023-05-10T13:56:28;4.13;;;1.40;;
28627;SDS011;15815;46.760;19.604;2023-05-10T13:58:55;1.80;;;1.60;;
28627;SDS011;15815;46.760;19.604;2023-05-10T14:01:22;4.57;;;1.77;;
28627;SDS011;15815;46.760;19.604;2023-05-10T14:03:47;2.05;;;1.85;;
28627;SDS011;15815;46.760;19.604;2023-05-10T14:06:13;2.70;;;1.80;;
28627;SDS011;15815;46.760;19.604;2023-05-10T14:08:38;9.18;;;1.98;;
28627;SDS011;15815;46.760;19.604;2023-05-10T14:11:06;4.22;;;2.00;;
28627;SDS011;15815;46.760;19.604;2023-05-10T14:13:31;7.43;;;1.92;;
28627;SDS011;15815;46.760;19.604;2023-05-10T14:15:57;8.02;;;2.08;;
28627;SDS011;15815;46.760;19.604;2023-05-10T14:18:22;7.28;;;1.98;;
28627;SDS011;15815;46.760;19.604;2023-05-10T14:20:48;2.40;;;1.90;;
28627;SDS011;15815;46.760;19.604;2023-05-10T14:23:14;3.25;;;1.77;;
28627;SDS011;15815;46.760;19.604;2023-05-10T14:25:40;9.88;;;1.75;;
28627;SDS011;15815;46.760;19.604;2023-05-10T14:28:05;5.82;;;2.25;;
28627;SDS011;15815;46.760;19.604;2023-05-10T14:30:31;2.28;;;1.77;;
28627;SDS011;15815;46.760;19.604;2023-05-10T14:32:57;3.95;;;1.50;;
28627;SDS011;15815;46.760;19.604;2023-05-10T14:35:24;5.85;;;1.60;;
28627;SDS011;15815;46.760;19.604;2023-05-10T14:37:50;9.75;;;1.58;;
28627;SDS011;15815;46.760;19.604;2023-05-10T14:40:16;5.25;;;1.40;;
28627;SDS011;15815;46.760;19.604;2023-05-10T14:42:41;2.63;;;1.60;;
28627;SDS011;15815;46.760;19.604;2023-05-10T14:45:07;1.35;;;1.10;;
28627;SDS011;15815;46.760;19.604;2023-05-10T14:47:33;1.58;;;1.48;;
28627;SDS011;15815;46.760;19.604;2023-05-10T14:49:59;4.93;;;1.70;;
28627;SDS011;15815;46.760;19.604;2023-05-10T14:52:24;3.17;;;1.80;;
28627;SDS011;15815;46.760;19.604;2023-05-10T14:54:50;3.55;;;1.48;;
28627;SDS011;15815;46.760;19.604;2023-05-10T14:57:15;1.63;;;1.40;;
28627;SDS011;15815;46.760;19.604;2023-05-10T14:59:41;3.13;;;1.70;;
28627;SDS011;15815;46.760;19.604;2023-05-10T15:02:07;5.90;;;1.75;;
28627;SDS011;15815;46.760;19.604;2023-05-10T15:04:32;3.67;;;1.63;;
28627;SDS011;15815;46.760;19.604;2023-05-10T15:06:58;5.18;;;3.70;;